Time;durP1;ratioP1;P1;durP2;ratioP2;P2;SDS_P1;SDS_P2;PMS_P1;PMS_P2;Temp;Humidity;BMP_temperature;BMP_pressure;BME280_temperature;BME280_humidity;BME280_pressure;Samples;Min_cycle;Max_cycle;Signal;HPM_P1;HPM_P2
2023/04/22 00:01:25;;;;;;;29.42;11.32;;;;;;;9.81;87.39;100210.88;4975824;28;20084;-45
2023/04/22 00:03:52;;;;;;;23.52;9.75;;;;;;;9.80;87.33;100207.31;4988776;28;20117;-53
2023/04/22 00:06:19;;;;;;;18.63;8.95;;;;;;;9.80;87.67;100199.03;4976609;28;20146;-44
2023/04/22 00:08:45;;;;;;;19.95;9.20;;;;;;;9.80;87.44;100209.25;4987513;28;20049;-45
2023/04/22 00:11:12;;;;;;;16.00;7.80;;;;;;;9.79;87.66;100205.69;4991646;28;20053;-45
2023/04/22 00:13:39;;;;;;;16.27;8.02;;;;;;;9.79;87.52;100202.16;4992308;28;20104;-45
2023/04/22 00:16:06;;;;;;;13.48;6.57;;;;;;;9.75;87.58;100196.50;4992655;28;20149;-46
2023/04/22 00:18:35;;;;;;;13.38;7.20;;;;;;;9.72;88.09;100199.16;4992606;28;20074;-44
2023/04/22 00:21:02;;;;;;;21.25;7.03;;;;;;;9.68;88.17;100190.00;4990667;28;20052;-51
2023/04/22 00:23:33;;;;;;;;;;;;;;;9.69;88.52;100186.03;4993338;28;20050;-46
2023/04/22 00:26:01;;;;;;;17.52;7.18;;;;;;;9.71;87.76;100192.06;4991528;28;19926;-54
2023/04/22 00:28:27;;;;;;;15.68;6.43;;;;;;;9.70;88.00;100176.59;4991684;28;20137;-46
2023/04/22 00:30:57;;;;;;;21.85;8.82;;;;;;;9.68;88.12;100178.94;4991433;28;20488;-45
2023/04/22 00:33:24;;;;;;;23.60;8.10;;;;;;;9.67;88.29;100171.78;4991880;28;20559;-45
2023/04/22 00:35:53;;;;;;;16.27;7.95;;;;;;;9.66;88.36;100164.66;4992048;28;20520;-45
2023/04/22 00:38:20;;;;;;;21.90;9.10;;;;;;;9.68;88.21;100163.16;4974576;28;20135;-48
2023/04/22 00:40:47;;;;;;;23.38;11.15;;;;;;;9.69;88.54;100152.88;4982230;28;20043;-48
2023/04/22 00:43:15;;;;;;;13.98;8.48;;;;;;;9.69;88.52;100155.66;4986148;28;20046;-51
2023/04/22 00:45:43;;;;;;;19.02;10.23;;;;;;;9.70;88.54;100149.78;4989700;28;20049;-47
2023/04/22 00:48:11;;;;;;;20.77;9.85;;;;;;;9.72;88.53;100149.41;4992237;28;20050;-47
2023/04/22 00:50:38;;;;;;;23.35;10.35;;;;;;;9.72;88.51;100152.97;4992308;28;20075;-46
2023/04/22 00:53:05;;;;;;;17.27;9.20;;;;;;;9.75;88.53;100157.00;4992198;28;20046;-46
2023/04/22 00:55:32;;;;;;;21.25;9.18;;;;;;;9.77;88.68;100155.50;4992437;28;20054;-47
2023/04/22 00:58:02;;;;;;;21.80;10.02;;;;;;;9.79;88.80;100152.38;4989389;28;20050;-48
2023/04/22 01:00:29;;;;;;;25.85;9.68;;;;;;;9.78;88.85;100145.25;4992255;28;20095;-45
2023/04/22 01:02:57;;;;;;;23.98;9.18;;;;;;;9.76;88.75;100151.13;4991469;28;20105;-50
2023/04/22 01:05:24;;;;;;;25.23;11.18;;;;;;;9.73;88.80;100137.22;4999005;28;20060;-51
2023/04/22 01:07:51;;;;;;;31.77;12.90;;;;;;;9.69;89.04;100141.81;4992662;28;20048;-47
2023/04/22 01:10:18;;;;;;;22.23;10.70;;;;;;;9.70;89.14;100135.16;4991097;28;20061;-48
2023/04/22 01:12:45;;;;;;;17.75;9.77;;;;;;;9.69;89.10;100130.75;4978979;28;20472;-45
2023/04/22 01:15:12;;;;;;;19.88;11.07;;;;;;;9.70;89.17;100127.66;4991690;28;20057;-47
2023/04/22 01:17:38;;;;;;;20.80;10.25;;;;;;;9.72;89.28;100125.34;4991273;28;20072;-45
2023/04/22 01:20:09;;;;;;;21.92;10.40;;;;;;;9.74;89.08;100122.25;4991195;28;20042;-52
2023/04/22 01:22:41;;;;;;;17.73;10.35;;;;;;;9.73;89.26;100120.63;4990357;28;20042;-46
2023/04/22 01:25:10;;;;;;;26.00;11.85;;;;;;;9.71;89.27;100106.38;4974014;28;20468;-50
2023/04/22 01:27:38;;;;;;;21.85;11.35;;;;;;;9.69;89.26;100108.66;4972386;28;20039;-45
2023/04/22 01:30:05;;;;;;;23.02;13.10;;;;;;;9.68;89.35;100099.59;4991015;28;20069;-45
2023/04/22 01:32:32;;;;;;;25.33;12.02;;;;;;;9.66;89.35;100093.59;4990994;28;20053;-47
2023/04/22 01:34:59;;;;;;;24.90;13.05;;;;;;;9.62;89.55;100089.94;4990752;28;20046;-46
2023/04/22 01:37:27;;;;;;;21.38;12.05;;;;;;;9.61;89.47;100073.72;4990860;28;20504;-46
2023/04/22 01:39:54;;;;;;;28.27;13.95;;;;;;;9.60;89.59;100078.44;4990790;28;20046;-44
2023/04/22 01:42:21;;;;;;;27.33;13.48;;;;;;;9.60;89.49;100080.41;4981697;28;20133;-47
2023/04/22 01:44:47;;;;;;;23.02;12.18;;;;;;;9.60;89.47;100083.16;4990689;28;20042;-46
2023/04/22 01:47:14;;;;;;;25.02;12.80;;;;;;;9.61;89.58;100090.31;4990859;28;20085;-47
2023/04/22 01:49:41;;;;;;;22.88;12.65;;;;;;;9.65;89.52;100086.47;4989557;28;20043;-46
2023/04/22 01:52:08;;;;;;;24.90;14.75;;;;;;;9.66;89.58;100081.75;4991046;28;20621;-48
2023/04/22 01:54:35;;;;;;;20.95;12.73;;;;;;;9.64;89.58;100081.28;4990971;28;20046;-48
2023/04/22 01:57:08;;;;;;;21.98;12.05;;;;;;;9.65;89.64;100077.38;4989348;28;20062;-46
2023/04/22 01:59:35;;;;;;;22.83;11.88;;;;;;;9.61;89.68;100074.50;4990339;28;20424;-45
2023/04/22 02:02:02;;;;;;;29.02;14.30;;;;;;;9.60;89.70;100075.69;4992819;28;20066;-46
2023/04/22 02:04:30;;;;;;;23.90;11.52;;;;;;;9.57;89.97;100067.28;4990139;28;20515;-49
2023/04/22 02:06:57;;;;;;;27.75;12.07;;;;;;;9.59;89.79;100073.25;4983229;28;20066;-47
2023/04/22 02:09:24;;;;;;;22.73;11.43;;;;;;;9.58;89.93;100068.91;4990163;28;20066;-46
2023/04/22 02:11:51;;;;;;;25.02;13.68;;;;;;;9.55;90.10;100070.41;4990476;28;20046;-46
2023/04/22 02:14:17;;;;;;;25.35;13.57;;;;;;;9.57;90.05;100065.34;4990570;28;20061;-45
2023/04/22 02:16:44;;;;;;;23.77;11.52;;;;;;;9.61;90.15;100062.69;4989961;28;20058;-46
2023/04/22 02:19:10;;;;;;;28.40;12.25;;;;;;;9.63;90.02;100060.34;4989897;28;20491;-45
2023/04/22 02:21:37;;;;;;;29.02;14.77;;;;;;;9.66;90.01;100070.69;4989410;28;20046;-46
2023/04/22 02:24:04;;;;;;;28.38;12.77;;;;;;;9.61;90.16;100062.69;4987674;28;20059;-47
2023/04/22 02:26:31;;;;;;;22.15;11.70;;;;;;;9.60;90.13;100066.59;4987398;28;20092;-46
2023/04/22 02:28:58;;;;;;;21.45;11.93;;;;;;;9.60;90.09;100052.75;4989895;28;20584;-46
2023/04/22 02:31:24;;;;;;;36.90;13.90;;;;;;;9.57;90.16;100056.22;4982920;28;20066;-52
2023/04/22 02:33:51;;;;;;;34.67;13.45;;;;;;;9.55;90.00;100045.53;4984672;28;20050;-45
2023/04/22 02:36:18;;;;;;;22.67;11.57;;;;;;;9.57;90.09;100047.94;4988451;28;20453;-47
2023/04/22 02:38:45;;;;;;;21.92;12.40;;;;;;;9.54;90.15;100046.69;4988555;28;20057;-46
2023/04/22 02:41:11;;;;;;;26.88;12.93;;;;;;;9.53;90.38;100049.81;4984670;28;20374;-47
2023/04/22 02:43:38;;;;;;;25.60;13.27;;;;;;;9.49;90.29;100048.91;4979966;28;20576;-47
2023/04/22 02:46:05;;;;;;;26.90;14.05;;;;;;;9.50;90.31;100045.00;4986955;28;20134;-47
2023/04/22 02:48:31;;;;;;;20.73;12.63;;;;;;;9.50;90.38;100033.94;4986095;28;20135;-45
2023/04/22 02:50:58;;;;;;;23.20;11.57;;;;;;;9.50;90.33;100031.19;4986663;28;20049;-47
2023/04/22 02:53:24;;;;;;;22.08;11.55;;;;;;;9.47;90.46;100034.66;4987166;28;20057;-46
2023/04/22 02:55:51;;;;;;;30.98;12.15;;;;;;;9.45;90.20;100026.72;4979635;28;20051;-46
2023/04/22 02:58:18;;;;;;;22.95;13.10;;;;;;;9.45;90.59;100031.44;4985481;28;20045;-48
2023/04/22 03:00:45;;;;;;;22.08;11.60;;;;;;;9.46;90.66;100033.03;5034846;22;20012;-50
2023/04/22 03:03:11;;;;;;;21.05;12.90;;;;;;;9.43;90.71;100023.50;5046197;28;20037;-46
2023/04/22 03:05:39;;;;;;;22.60;12.50;;;;;;;9.43;90.74;100020.75;5040205;28;20136;-47
2023/04/22 03:08:06;;;;;;;23.83;11.60;;;;;;;9.44;90.63;100013.25;5045570;28;20045;-45
2023/04/22 03:10:32;;;;;;;29.17;11.55;;;;;;;9.47;90.72;100012.56;5047100;28;20386;-46
2023/04/22 03:12:59;;;;;;;22.92;11.75;;;;;;;9.48;90.71;100020.47;5040478;28;20131;-46
2023/04/22 03:15:26;;;;;;;23.67;12.27;;;;;;;9.46;90.70;100006.22;5041076;28;20056;-47
2023/04/22 03:17:52;;;;;;;26.13;10.45;;;;;;;9.42;90.76;99994.28;5039841;28;20514;-47
2023/04/22 03:20:19;;;;;;;22.02;12.40;;;;;;;9.40;90.72;99995.81;5045970;28;20059;-44
2023/04/22 03:22:46;;;;;;;22.27;12.15;;;;;;;9.38;90.83;99993.38;5053624;28;20089;-49
2023/04/22 03:25:13;;;;;;;24.13;11.73;;;;;;;9.38;90.92;99987.84;5051662;28;20132;-46
2023/04/22 03:27:40;;;;;;;22.38;11.93;;;;;;;9.36;90.81;99983.84;5045621;28;20394;-46
2023/04/22 03:30:08;;;;;;;20.48;10.90;;;;;;;9.35;90.83;99968.41;5043659;28;20360;-47
2023/04/22 03:32:35;;;;;;;23.65;10.90;;;;;;;9.35;90.74;99977.50;5039704;28;20402;-46
2023/04/22 03:35:01;;;;;;;24.67;13.52;;;;;;;9.37;90.77;99968.88;5042781;28;20059;-46
2023/04/22 03:37:28;;;;;;;22.75;11.05;;;;;;;9.37;90.70;99971.66;5040738;28;20106;-49
2023/04/22 03:39:55;;;;;;;21.75;10.07;;;;;;;9.37;90.92;99966.13;5046964;28;20052;-45
2023/04/22 03:42:22;;;;;;;23.73;11.20;;;;;;;9.35;90.94;99968.41;5045083;28;20055;-46
2023/04/22 03:44:48;;;;;;;22.88;11.25;;;;;;;9.32;91.21;99966.38;5051902;28;20049;-45
2023/04/22 03:47:15;;;;;;;26.27;11.05;;;;;;;9.29;91.04;99950.53;5047867;28;20486;-45
2023/04/22 03:49:42;;;;;;;25.50;11.10;;;;;;;9.28;91.09;99946.16;5052377;28;20073;-49
2023/04/22 03:52:09;;;;;;;23.65;10.85;;;;;;;9.26;91.14;99946.50;5029656;28;20044;-45
2023/04/22 03:54:36;;;;;;;20.67;10.57;;;;;;;9.25;91.14;99942.13;5048013;28;20033;-45
2023/04/22 03:57:02;;;;;;;26.20;11.52;;;;;;;9.24;91.17;99935.00;5049237;28;20412;-49
2023/04/22 03:59:29;;;;;;;26.27;11.45;;;;;;;9.24;91.18;99932.25;5027509;28;20041;-46
2023/04/22 04:01:56;;;;;;;24.75;11.50;;;;;;;9.26;91.24;99927.19;5046198;28;20536;-45
2023/04/22 04:04:22;;;;;;;20.80;10.85;;;;;;;9.27;91.10;99917.72;5047243;28;20072;-48
2023/04/22 04:06:50;;;;;;;22.33;11.30;;;;;;;9.27;90.99;99927.97;5027776;28;20060;-44
2023/04/22 04:09:17;;;;;;;29.45;11.93;;;;;;;9.28;91.08;99910.25;5049376;28;20055;-49
2023/04/22 04:11:43;;;;;;;21.58;12.35;;;;;;;9.27;91.26;99911.38;5048174;28;20141;-45
2023/04/22 04:14:10;;;;;;;23.58;11.98;;;;;;;9.26;91.26;99918.91;5050079;28;20486;-46
2023/04/22 04:16:37;;;;;;;23.80;12.40;;;;;;;9.28;91.21;99915.75;5049181;28;20040;-49
2023/04/22 04:19:05;;;;;;;26.13;11.82;;;;;;;9.28;91.30;99913.81;5047287;28;20048;-45
2023/04/22 04:21:33;;;;;;;22.33;11.55;;;;;;;9.26;91.26;99912.56;5048004;28;20055;-46
2023/04/22 04:23:59;;;;;;;34.13;11.55;;;;;;;9.23;91.23;99907.75;5051143;28;20451;-50
2023/04/22 04:26:27;;;;;;;26.55;12.95;;;;;;;9.23;91.05;99913.28;5049527;28;20111;-48
2023/04/22 04:28:54;;;;;;;26.70;13.25;;;;;;;9.22;91.23;99906.94;5030755;28;20544;-47
2023/04/22 04:31:23;;;;;;;24.48;13.10;;;;;;;9.23;91.20;99902.22;5032929;28;20072;-44
2023/04/22 04:33:51;;;;;;;27.58;13.98;;;;;;;9.23;91.08;99888.41;5048937;28;20040;-46
2023/04/22 04:36:18;;;;;;;25.77;13.00;;;;;;;9.27;91.13;99881.00;5049316;28;20128;-49
2023/04/22 04:38:46;;;;;;;28.50;13.63;;;;;;;9.29;91.18;99884.25;5041684;28;20041;-49
2023/04/22 04:41:13;;;;;;;26.58;12.20;;;;;;;9.28;91.08;99875.13;5048991;28;20060;-44
2023/04/22 04:43:40;;;;;;;26.50;12.75;;;;;;;9.28;91.07;99866.84;5042676;28;20041;-46
2023/04/22 04:46:07;;;;;;;30.60;13.27;;;;;;;9.26;91.18;99862.84;5055386;28;20478;-45
2023/04/22 04:48:34;;;;;;;24.02;12.88;;;;;;;9.24;91.12;99854.91;5047526;28;20080;-55
2023/04/22 04:51:03;;;;;;;29.73;13.20;;;;;;;9.24;91.09;99851.38;5048802;28;20064;-47
2023/04/22 04:53:29;;;;;;;25.58;11.85;;;;;;;9.21;91.09;99849.31;5021760;28;20604;-48
2023/04/22 04:55:56;;;;;;;25.23;12.43;;;;;;;9.15;91.26;99841.31;5044849;28;20045;-46
2023/04/22 04:58:23;;;;;;;23.20;12.27;;;;;;;9.14;91.09;99842.44;5048087;28;20051;-45
2023/04/22 05:00:50;;;;;;;21.98;11.90;;;;;;;9.11;90.94;99842.34;5045922;28;20398;-46
2023/04/22 05:03:18;;;;;;;27.08;11.27;;;;;;;9.10;91.09;99841.56;5043459;28;20048;-45
2023/04/22 05:05:47;;;;;;;19.40;10.70;;;;;;;9.11;91.21;99840.41;5049155;28;20456;-49
2023/04/22 05:08:14;;;;;;;20.80;10.90;;;;;;;9.08;91.10;99841.13;5048206;28;20045;-46
2023/04/22 05:10:41;;;;;;;26.02;12.57;;;;;;;9.06;91.06;99831.59;5048106;28;20037;-47
2023/04/22 05:13:08;;;;;;;26.05;12.43;;;;;;;9.04;91.13;99831.97;5048620;28;20052;-46
2023/04/22 05:15:34;;;;;;;23.08;11.25;;;;;;;9.01;91.01;99834.63;5047179;28;20087;-50
2023/04/22 05:18:01;;;;;;;27.58;11.00;;;;;;;9.00;91.06;99839.34;5047582;28;20045;-52
2023/04/22 05:20:28;;;;;;;27.08;13.25;;;;;;;8.99;91.07;99836.94;5048833;28;20107;-45
2023/04/22 05:22:55;;;;;;;20.98;9.75;;;;;;;9.01;91.07;99831.84;5024679;28;20057;-49
2023/04/22 05:25:23;;;;;;;22.30;10.45;;;;;;;9.02;91.01;99831.50;5042482;28;20057;-49
2023/04/22 05:27:58;;;;;;;17.52;9.70;;;;;;;9.04;91.18;99828.38;5044644;28;20132;-46
2023/04/22 05:30:26;;;;;;;17.83;9.05;;;;;;;9.04;91.06;99820.91;5051338;28;20402;-46
2023/04/22 05:32:52;;;;;;;18.80;9.85;;;;;;;9.05;91.05;99816.97;5045943;28;20074;-46
2023/04/22 05:35:19;;;;;;;23.90;11.45;;;;;;;9.06;91.13;99832.38;5045208;28;20037;-45
2023/04/22 05:37:46;;;;;;;23.75;11.13;;;;;;;9.07;91.17;99828.47;5046187;28;20098;-46
2023/04/22 05:40:13;;;;;;;20.52;9.38;;;;;;;9.09;91.27;99826.16;5049218;28;20048;-45
2023/04/22 05:42:39;;;;;;;24.85;11.02;;;;;;;9.12;91.18;99830.97;5047228;28;20055;-49
2023/04/22 05:45:07;;;;;;;24.77;12.73;;;;;;;9.13;91.07;99832.56;5038857;28;20414;-47
2023/04/22 05:47:33;;;;;;;25.85;11.10;;;;;;;9.10;91.13;99822.25;5044328;28;20429;-45
2023/04/22 05:50:00;;;;;;;30.70;14.10;;;;;;;9.07;91.17;99820.19;5050044;28;20099;-46
2023/04/22 05:52:27;;;;;;;21.60;11.57;;;;;;;9.08;91.14;99819.03;5046309;28;20409;-49
2023/04/22 05:54:53;;;;;;;23.33;10.75;;;;;;;9.08;91.42;99827.31;5017328;28;20518;-47
2023/04/22 05:57:20;;;;;;;29.55;11.52;;;;;;;9.07;91.34;99819.41;5045707;28;20064;-49
2023/04/22 05:59:47;;;;;;;18.20;10.98;;;;;;;9.05;91.47;99819.72;5044778;28;20040;-52
2023/04/22 06:02:14;;;;;;;21.63;10.30;;;;;;;9.02;91.69;99817.72;5048560;28;20061;-48
2023/04/22 06:04:41;;;;;;;20.48;11.02;;;;;;;9.04;91.60;99820.91;5040097;28;20048;-47
2023/04/22 06:07:09;;;;;;;25.58;13.38;;;;;;;9.04;91.64;99815.38;5043671;28;20052;-48
2023/04/22 06:09:37;;;;;;;20.52;10.05;;;;;;;9.02;91.49;99814.94;5042296;28;20069;-44
2023/04/22 06:12:04;;;;;;;15.32;9.35;;;;;;;9.03;91.77;99811.00;5046978;28;20048;-46
2023/04/22 06:14:31;;;;;;;28.30;11.68;;;;;;;9.06;91.91;99807.53;5047761;28;20409;-47
2023/04/22 06:16:58;;;;;;;23.90;11.75;;;;;;;9.05;91.70;99803.16;5046618;28;20067;-46
2023/04/22 06:19:24;;;;;;;15.35;9.20;;;;;;;9.05;91.74;99810.66;5042247;28;20471;-46
2023/04/22 06:21:52;;;;;;;26.90;10.00;;;;;;;9.06;91.89;99810.31;5048888;28;20128;-44
2023/04/22 06:24:21;;;;;;;21.13;9.55;;;;;;;9.05;91.86;99813.44;5049085;28;20037;-46
2023/04/22 06:26:47;;;;;;;23.85;9.55;;;;;;;9.04;91.83;99812.63;5048209;28;20067;-46
2023/04/22 06:29:14;;;;;;;15.40;9.02;;;;;;;9.03;91.82;99811.00;5037991;28;20095;-50
2023/04/22 06:31:41;;;;;;;19.48;8.15;;;;;;;9.03;91.79;99807.44;5045449;28;20055;-45
2023/04/22 06:34:08;;;;;;;18.88;8.32;;;;;;;9.00;91.86;99803.44;5049036;28;20068;-45
2023/04/22 06:36:36;;;;;;;23.67;9.93;;;;;;;9.01;92.00;99801.50;5048971;28;20053;-45
2023/04/22 06:39:04;;;;;;;17.13;9.70;;;;;;;9.02;91.94;99792.88;5048125;28;20049;-46
2023/04/22 06:41:32;;;;;;;16.52;8.88;;;;;;;9.06;91.87;99787.41;5031212;28;20049;-44
2023/04/22 06:43:58;;;;;;;15.38;9.20;;;;;;;9.12;91.98;99778.50;5051783;28;20059;-46
2023/04/22 06:46:25;;;;;;;12.57;8.52;;;;;;;9.22;91.86;99785.44;5054729;28;20048;-47
2023/04/22 06:48:52;;;;;;;24.02;8.70;;;;;;;9.30;91.69;99775.34;5048935;28;20069;-46
2023/04/22 06:51:18;;;;;;;16.92;9.15;;;;;;;9.36;91.74;99771.94;5048682;28;20091;-49
2023/04/22 06:53:45;;;;;;;32.25;10.15;;;;;;;9.41;91.42;99774.44;5048251;28;20422;-48
2023/04/22 06:56:12;;;;;;;13.07;7.43;;;;;;;9.47;91.54;99774.94;5048886;28;20045;-47
2023/04/22 06:58:38;;;;;;;11.30;7.28;;;;;;;9.55;91.60;99773.94;4998234;28;20048;-47
2023/04/22 07:01:05;;;;;;;17.10;7.40;;;;;;;9.61;91.38;99773.28;5046523;28;20064;-46
2023/04/22 07:03:32;;;;;;;13.13;7.20;;;;;;;9.64;91.25;99771.75;5047328;28;20086;-50
2023/04/22 07:05:59;;;;;;;14.70;6.82;;;;;;;9.67;91.29;99774.59;5031107;28;20041;-46
2023/04/22 07:08:26;;;;;;;13.90;7.22;;;;;;;9.70;91.27;99767.53;5047368;28;20059;-46
2023/04/22 07:10:53;;;;;;;17.55;7.80;;;;;;;9.75;91.24;99770.03;5048497;28;20140;-46
2023/04/22 07:13:20;;;;;;;16.30;7.32;;;;;;;9.77;91.11;99762.16;5048585;28;20140;-45
2023/04/22 07:15:47;;;;;;;21.10;8.93;;;;;;;9.76;91.06;99774.41;5048439;28;20049;-47
2023/04/22 07:18:13;;;;;;;17.00;7.22;;;;;;;9.77;91.02;99767.69;5048089;28;20053;-44
2023/04/22 07:20:40;;;;;;;12.77;6.85;;;;;;;9.76;90.97;99772.44;5044450;28;20402;-45
2023/04/22 07:23:06;;;;;;;8.38;4.70;;;;;;;9.71;90.78;99769.97;5048221;28;20135;-43
2023/04/22 07:25:33;;;;;;;12.27;4.45;;;;;;;9.65;90.69;99770.59;5045366;28;20576;-51
2023/04/22 07:28:00;;;;;;;9.00;4.20;;;;;;;9.57;90.67;99769.66;5040921;28;20045;-46
2023/04/22 07:30:26;;;;;;;10.77;3.70;;;;;;;9.52;90.61;99760.84;5046909;28;20037;-46
2023/04/22 07:32:54;;;;;;;7.07;3.60;;;;;;;9.48;90.83;99752.47;5044643;28;20041;-48
2023/04/22 07:35:22;;;;;;;10.13;3.45;;;;;;;9.49;90.73;99761.56;5047843;28;20037;-47
2023/04/22 07:37:48;;;;;;;6.65;3.50;;;;;;;9.45;90.87;99752.41;5044859;28;20041;-47
2023/04/22 07:40:15;;;;;;;13.57;4.40;;;;;;;9.40;90.70;99747.94;5042247;28;20102;-47
2023/04/22 07:42:42;;;;;;;5.97;2.97;;;;;;;9.39;90.62;99745.56;5024542;28;20403;-46
2023/04/22 07:45:09;;;;;;;7.82;3.63;;;;;;;9.39;90.53;99756.63;5045713;28;20037;-47
2023/04/22 07:47:36;;;;;;;7.00;2.92;;;;;;;9.36;90.28;99746.28;5036565;28;20054;-45
2023/04/22 07:50:03;;;;;;;8.07;3.10;;;;;;;9.34;90.34;99737.56;5047500;28;20053;-45
2023/04/22 07:52:30;;;;;;;13.48;4.50;;;;;;;9.34;90.10;99737.56;5047896;28;20079;-46
2023/04/22 07:54:57;;;;;;;8.18;2.95;;;;;;;9.35;90.35;99736.38;5038893;28;20084;-45
2023/04/22 07:57:24;;;;;;;10.27;3.22;;;;;;;9.37;90.32;99732.09;5047644;28;20063;-53
2023/04/22 07:59:51;;;;;;;8.55;3.55;;;;;;;9.39;90.33;99737.28;5030385;28;20110;-51
2023/04/22 08:02:18;;;;;;;7.95;3.78;;;;;;;9.38;90.32;99742.00;5038459;28;20049;-47
2023/04/22 08:04:45;;;;;;;7.32;3.40;;;;;;;9.35;90.16;99733.63;5040889;28;20048;-45
2023/04/22 08:07:14;;;;;;;8.40;4.13;;;;;;;9.34;90.29;99734.81;5035988;28;20049;-48
2023/04/22 08:09:58;;;;;;;9.93;4.57;;;;;;;9.31;90.37;99732.75;5046190;28;20094;-45
2023/04/22 08:12:25;;;;;;;19.27;5.63;;;;;;;9.27;90.25;99729.09;5041388;28;20051;-45
2023/04/22 08:14:51;;;;;;;11.52;4.45;;;;;;;9.27;90.46;99732.66;5043725;28;20052;-46
2023/04/22 08:17:20;;;;;;;9.52;3.90;;;;;;;9.26;90.56;99731.09;5047140;28;20052;-47
2023/04/22 08:19:48;;;;;;;10.38;4.03;;;;;;;9.26;90.51;99735.81;5047664;28;20049;-46
2023/04/22 08:22:16;;;;;;;16.67;6.55;;;;;;;9.24;90.42;99730.63;5048318;28;20041;-49
2023/04/22 08:24:43;;;;;;;9.30;4.25;;;;;;;9.23;90.58;99722.72;5047545;28;20048;-45
2023/04/22 08:27:10;;;;;;;8.88;4.30;;;;;;;9.22;91.00;99727.44;5013622;28;20088;-49
2023/04/22 08:29:37;;;;;;;9.60;4.10;;;;;;;9.25;90.61;99723.16;5051323;28;20047;-45
2023/04/22 08:32:04;;;;;;;9.02;3.80;;;;;;;9.26;90.87;99719.22;5050548;28;20059;-46
2023/04/22 08:34:31;;;;;;;8.23;4.10;;;;;;;9.27;90.76;99718.06;5051564;28;20052;-45
2023/04/22 08:36:57;;;;;;;9.10;4.00;;;;;;;9.26;90.76;99708.19;5051208;28;20068;-46
2023/04/22 08:39:24;;;;;;;11.65;4.60;;;;;;;9.27;90.82;99707.00;5033663;28;20379;-47
2023/04/22 08:41:52;;;;;;;10.23;3.92;;;;;;;9.25;90.85;99701.06;5051021;28;20037;-44
2023/04/22 08:44:20;;;;;;;6.25;4.00;;;;;;;9.23;90.90;99693.13;5056237;28;20040;-46
2023/04/22 08:46:48;;;;;;;7.72;4.20;;;;;;;9.22;91.16;99697.06;5046779;28;20041;-44
2023/04/22 08:49:15;;;;;;;14.27;4.10;;;;;;;9.25;91.29;99690.00;5051065;28;20417;-44
2023/04/22 08:51:43;;;;;;;11.82;4.80;;;;;;;9.24;91.13;99700.25;5050962;28;20049;-44
2023/04/22 08:54:11;;;;;;;7.75;4.43;;;;;;;9.24;91.25;99699.47;5033341;28;20481;-44
2023/04/22 08:56:44;;;;;;;15.07;5.88;;;;;;;9.22;91.36;99690.72;5050894;28;20494;-44
2023/04/22 08:59:11;;;;;;;12.23;4.60;;;;;;;9.23;91.49;99697.84;5032457;28;20060;-45
2023/04/22 09:01:40;;;;;;;10.82;5.68;;;;;;;9.21;91.38;99700.19;5050015;28;20403;-44
2023/04/22 09:04:09;;;;;;;11.30;4.15;;;;;;;9.21;91.69;99692.72;5051363;28;20083;-45
2023/04/22 09:06:37;;;;;;;20.58;6.20;;;;;;;9.25;91.69;99692.75;5033641;28;20057;-44
2023/04/22 09:09:04;;;;;;;5.68;3.97;;;;;;;9.26;91.70;99691.63;5050378;28;20136;-53
2023/04/22 09:11:32;;;;;;;10.57;4.50;;;;;;;9.28;91.82;99683.75;5049358;28;20045;-47
2023/04/22 09:13:58;;;;;;;10.77;5.22;;;;;;;9.29;91.94;99680.66;5048912;28;20095;-45
2023/04/22 09:16:25;;;;;;;10.10;5.18;;;;;;;9.31;92.03;99677.53;5050964;28;20076;-45
2023/04/22 09:18:52;;;;;;;8.20;4.13;;;;;;;9.28;92.04;99672.72;5033211;28;20375;-44
2023/04/22 09:21:19;;;;;;;6.70;3.80;;;;;;;9.27;92.08;99669.16;5048760;28;20044;-47
2023/04/22 09:23:53;;;;;;;9.25;3.55;;;;;;;9.28;92.15;99668.00;5050620;28;20124;-48
2023/04/22 09:26:22;;;;;;;7.60;4.72;;;;;;;9.26;92.19;99664.81;5050402;28;20060;-47
2023/04/22 09:28:59;;;;;;;6.38;3.78;;;;;;;9.26;92.22;99664.81;5049916;28;20083;-49
2023/04/22 09:31:27;;;;;;;4.05;3.22;;;;;;;9.31;92.28;99659.00;5054484;28;20068;-48
2023/04/22 09:33:57;;;;;;;9.15;4.05;;;;;;;9.34;92.36;99655.50;5050368;28;20037;-48
2023/04/22 09:36:28;;;;;;;10.25;4.80;;;;;;;9.39;92.41;99660.75;5050388;28;20053;-49
2023/04/22 09:38:58;;;;;;;8.05;4.32;;;;;;;9.43;92.35;99655.25;5050287;28;20045;-45
2023/04/22 09:41:37;;;;;;;9.00;4.03;;;;;;;9.45;92.25;99652.97;5050046;28;20049;-46
2023/04/22 09:44:14;;;;;;;4.78;2.42;;;;;;;9.44;91.92;99660.44;5028014;28;20037;-45
2023/04/22 09:46:43;;;;;;;5.95;2.63;;;;;;;9.38;91.81;99650.84;5050037;28;20540;-48
2023/04/22 09:49:10;;;;;;;3.25;2.28;;;;;;;9.33;91.67;99655.84;5050049;28;20087;-47
2023/04/22 09:51:40;;;;;;;4.90;3.17;;;;;;;9.27;91.73;99662.81;5050020;28;20051;-45
2023/04/22 09:54:09;;;;;;;4.55;3.05;;;;;;;9.27;91.69;99660.88;5050613;28;20041;-46
2023/04/22 09:57:02;;;;;;;4.75;2.67;;;;;;;9.28;91.73;99650.63;5050167;28;20053;-45
2023/04/22 09:59:30;;;;;;;5.82;2.78;;;;;;;9.27;91.59;99662.81;5046852;28;20135;-47
2023/04/22 10:02:00;;;;;;;6.65;2.97;;;;;;;9.29;91.59;99652.22;5049154;28;20059;-45
2023/04/22 10:04:27;;;;;;;3.42;2.60;;;;;;;9.25;91.37;99654.91;5048391;28;20049;-46
2023/04/22 10:06:54;;;;;;;8.57;3.00;;;;;;;9.25;91.38;99652.16;5049749;28;20120;-45
2023/04/22 10:09:22;;;;;;;4.32;2.45;;;;;;;9.24;91.29;99658.03;5049416;28;20491;-46
2023/04/22 10:11:52;;;;;;;5.35;2.42;;;;;;;9.22;91.21;99657.59;5039676;28;20033;-46
2023/04/22 10:14:23;;;;;;;5.13;3.50;;;;;;;9.19;91.15;99651.63;5043392;28;20112;-46
2023/04/22 10:16:53;;;;;;;11.23;2.65;;;;;;;9.24;91.28;99647.78;5046257;28;20036;-50
2023/04/22 10:19:22;;;;;;;5.47;3.17;;;;;;;9.32;91.17;99646.00;5027125;28;20072;-46
2023/04/22 10:21:54;;;;;;;6.15;3.58;;;;;;;9.40;91.17;99647.72;5008298;28;20503;-48
2023/04/22 10:24:25;;;;;;;11.70;4.78;;;;;;;9.42;91.12;99635.16;5008945;28;20525;-49
2023/04/22 10:26:56;;;;;;;6.90;3.23;;;;;;;9.44;91.05;99649.41;5008970;28;20119;-48
2023/04/22 10:29:26;;;;;;;8.60;3.45;;;;;;;9.47;90.97;99643.16;5007925;28;20048;-48
2023/04/22 10:31:58;;;;;;;5.20;3.22;;;;;;;9.53;91.16;99640.88;5008024;28;20075;-48
2023/04/22 10:34:25;;;;;;;;;;;;;;;9.62;91.16;99638.69;5009191;28;20053;-46
2023/04/22 10:36:56;;;;;;;5.47;3.05;;;;;;;9.73;90.87;99634.16;4990271;28;19936;-46
2023/04/22 10:39:24;;;;;;;6.63;3.67;;;;;;;9.77;90.78;99629.47;5007697;28;20049;-47
2023/04/22 10:41:53;;;;;;;4.13;2.85;;;;;;;9.85;90.97;99633.97;5007934;28;21256;-48
2023/04/22 10:44:21;;;;;;;4.07;2.17;;;;;;;9.91;90.97;99624.22;5019744;28;20483;-51
2023/04/22 10:46:51;;;;;;;3.92;2.17;;;;;;;9.98;90.63;99638.16;5049021;28;20048;-47
2023/04/22 10:49:23;;;;;;;3.28;2.42;;;;;;;10.02;90.46;99630.75;5048284;28;20148;-49
2023/04/22 10:51:54;;;;;;;2.80;1.80;;;;;;;10.01;90.32;99634.66;5009166;28;20053;-48
2023/04/22 10:54:27;;;;;;;3.47;1.85;;;;;;;10.07;90.23;99626.88;5007975;28;20041;-50
2023/04/22 10:57:07;;;;;;;4.25;2.40;;;;;;;10.16;90.32;99622.72;5010025;28;21727;-50
2023/04/22 10:59:41;;;;;;;4.10;2.40;;;;;;;10.19;89.97;99635.81;5008407;28;20041;-49
2023/04/22 11:02:10;;;;;;;3.88;2.30;;;;;;;10.19;89.88;99633.03;5007722;28;20045;-50
2023/04/22 11:04:38;;;;;;;4.18;2.45;;;;;;;10.22;89.83;99628.72;5008640;28;20170;-50
2023/04/22 11:07:12;;;;;;;6.35;2.47;;;;;;;10.24;89.79;99623.66;5007941;28;20498;-52
2023/04/22 11:09:39;;;;;;;4.30;2.85;;;;;;;10.20;89.76;99626.34;5008260;28;20041;-50
2023/04/22 11:12:34;;;;;;;3.72;2.78;;;;;;;10.20;89.71;99642.94;5008707;28;20741;-46
2023/04/22 11:15:09;;;;;;;4.05;2.90;;;;;;;10.18;90.00;99639.75;5009434;28;20061;-49
2023/04/22 11:17:37;;;;;;;5.18;3.25;;;;;;;10.22;90.17;99640.59;5009885;28;20526;-48
2023/04/22 11:20:06;;;;;;;4.28;2.85;;;;;;;10.25;90.00;99639.88;5009768;28;20049;-47
2023/04/22 11:22:38;;;;;;;3.75;3.13;;;;;;;10.25;89.57;99634.31;5009506;28;21566;-48
2023/04/22 11:25:05;;;;;;;7.63;4.15;;;;;;;10.16;89.26;99631.03;5008423;28;20056;-46
2023/04/22 11:27:32;;;;;;;6.57;4.03;;;;;;;10.01;88.79;99634.66;5007670;28;21371;-44
2023/04/22 11:30:06;;;;;;;8.00;4.40;;;;;;;9.82;88.45;99631.97;5008446;28;20045;-50
2023/04/22 11:32:37;;;;;;;8.23;4.65;;;;;;;9.68;88.58;99640.00;5007825;28;20822;-48